Terminal Aerodrome Forecast
Issued by NWS

Current Version | Previous Version | Text Only | Print | Product List | Glossary Off
Versions: 1 2 3 4 5 6 7 8 9 10 11 12 13 14 15 16 17 18 19 20 21 22

000
FTUS41 KPBZ 162320
TAFHLG
TAF
KHLG 162320Z 1700/1724 33008G17KT P6SM BKN025
     FM170300 33005KT P6SM BKN035
     FM170900 11003KT P6SM FEW035
     FM172100 17005KT 3SM -SN OVC020
     FM172300 18005KT 2SM -SN OVC010=

USA.gov is the U.S. government's official web portal to all federal, state and local government web resources and services.